createdAt,value
2022-11-25T00:01:13.081Z,12.98
2022-11-25T00:03:40.418Z,15.68
2022-11-25T00:06:15.750Z,14.07
2022-11-25T00:08:43.335Z,14.07
2022-11-25T00:11:10.478Z,7.32
2022-11-25T00:13:37.479Z,13.23
2022-11-25T00:16:05.807Z,15.18
2022-11-25T00:18:32.268Z,14.85
2022-11-25T00:20:59.146Z,14.32
2022-11-25T00:23:29.192Z,13.35
2022-11-25T00:26:08.855Z,12.05
2022-11-25T00:28:35.307Z,13.18
2022-11-25T00:31:12.939Z,14.35
2022-11-25T00:33:39.962Z,13.60
2022-11-25T00:36:08.635Z,12.88
2022-11-25T00:38:35.015Z,14.93
2022-11-25T00:41:20.067Z,9.75
2022-11-25T00:44:05.081Z,11.95
2022-11-25T00:46:31.481Z,15.20
2022-11-25T00:48:57.886Z,15.30
2022-11-25T00:51:24.290Z,19.75
2022-11-25T00:53:53.491Z,15.00
2022-11-25T00:56:23.987Z,13.90
2022-11-25T00:58:50.422Z,14.85
2022-11-25T01:01:16.886Z,17.00
2022-11-25T01:03:43.284Z,16.73
2022-11-25T01:06:11.058Z,11.85
2022-11-25T01:08:38.527Z,17.83
2022-11-25T01:11:07.666Z,14.45
2022-11-25T01:13:34.435Z,14.70
2022-11-25T01:16:02.407Z,12.05
2022-11-25T01:18:29.350Z,17.17
2022-11-25T01:20:55.775Z,16.92
2022-11-25T01:23:22.135Z,9.55
2022-11-25T01:25:48.503Z,15.15
2022-11-25T01:28:14.888Z,16.23
2022-11-25T01:30:41.484Z,12.13
2022-11-25T01:33:07.915Z,15.93
2022-11-25T01:35:37.606Z,16.50
2022-11-25T01:38:04.064Z,13.80
2022-11-25T01:40:30.476Z,13.98
2022-11-25T01:42:56.853Z,12.45
2022-11-25T01:45:25.540Z,13.40
2022-11-25T01:47:57.667Z,13.00
2022-11-25T01:50:24.840Z,15.10
2022-11-25T01:52:52.149Z,15.07
2022-11-25T01:55:24.785Z,14.88
2022-11-25T01:58:12.121Z,12.57
2022-11-25T02:00:38.996Z,11.32
2022-11-25T02:03:06.017Z,17.80
2022-11-25T02:05:37.458Z,13.70
2022-11-25T02:08:04.626Z,10.68
2022-11-25T02:10:32.193Z,15.63
2022-11-25T02:12:59.006Z,8.68
2022-11-25T02:15:25.697Z,21.58
2022-11-25T02:17:52.584Z,15.30
2022-11-25T02:20:21.499Z,18.33
2022-11-25T02:22:58.157Z,15.25
2022-11-25T02:25:38.865Z,14.00
2022-11-25T02:28:09.345Z,13.30
2022-11-25T02:30:36.182Z,15.30
2022-11-25T02:33:02.592Z,16.95
2022-11-25T02:35:33.575Z,19.92
2022-11-25T02:38:04.278Z,12.60
2022-11-25T02:40:31.026Z,15.93
2022-11-25T02:42:59.680Z,17.63
2022-11-25T02:45:35.724Z,14.73
2022-11-25T02:48:02.170Z,11.68
2022-11-25T02:50:28.529Z,12.30
2022-11-25T02:52:54.930Z,14.07
2022-11-25T02:55:21.343Z,17.00
2022-11-25T02:57:47.840Z,13.80
2022-11-25T03:00:15.007Z,15.50
2022-11-25T03:02:41.538Z,15.50
2022-11-25T03:05:08.061Z,14.88
2022-11-25T03:07:34.568Z,14.13
2022-11-25T03:10:00.974Z,14.38
2022-11-25T03:12:28.978Z,13.25
2022-11-25T03:14:55.678Z,18.10
2022-11-25T03:17:22.094Z,15.70
2022-11-25T03:19:48.462Z,14.02
2022-11-25T03:22:14.902Z,15.80
2022-11-25T03:24:41.315Z,18.85
2022-11-25T03:27:07.778Z,13.10
2022-11-25T03:29:34.149Z,17.73
2022-11-25T03:32:03.258Z,18.65
2022-11-25T03:34:31.890Z,13.32
2022-11-25T03:36:58.479Z,17.00
2022-11-25T03:39:24.978Z,22.85
2022-11-25T03:41:51.350Z,20.77
2022-11-25T03:44:17.734Z,17.10
2022-11-25T03:46:44.169Z,14.25
2022-11-25T03:49:10.531Z,18.13
2022-11-25T03:51:37.009Z,14.90
2022-11-25T03:54:03.492Z,17.65
2022-11-25T03:56:29.915Z,13.20
2022-11-25T03:58:56.406Z,19.70
2022-11-25T04:01:22.940Z,14.30
2022-11-25T04:03:49.361Z,20.10
2022-11-25T04:06:16.110Z,20.17
2022-11-25T04:08:42.497Z,20.88
2022-11-25T04:11:08.873Z,17.17
2022-11-25T04:13:35.377Z,17.77
2022-11-25T04:16:01.731Z,12.75
2022-11-25T04:18:28.190Z,17.38
2022-11-25T04:20:54.551Z,15.30
2022-11-25T04:23:20.943Z,14.43
2022-11-25T04:25:50.349Z,18.00
2022-11-25T04:28:16.909Z,18.55
2022-11-25T04:30:43.334Z,10.52
2022-11-25T04:33:09.710Z,10.35
2022-11-25T04:35:36.062Z,13.30
2022-11-25T04:38:02.510Z,15.30
2022-11-25T04:40:28.865Z,12.05
2022-11-25T04:43:02.440Z,14.93
2022-11-25T04:45:51.512Z,9.93
2022-11-25T04:48:17.719Z,9.43
2022-11-25T04:50:44.318Z,12.48
2022-11-25T04:53:10.846Z,12.50
2022-11-25T04:55:37.318Z,8.18
2022-11-25T04:58:04.123Z,10.90
2022-11-25T05:00:30.555Z,6.25
2022-11-25T05:02:57.030Z,9.75
2022-11-25T05:05:23.476Z,6.70
2022-11-25T05:07:50.101Z,9.68
2022-11-25T05:10:16.607Z,10.43
2022-11-25T05:12:42.984Z,10.23
2022-11-25T05:15:10.031Z,9.80
2022-11-25T05:17:37.017Z,8.52
2022-11-25T05:20:04.757Z,8.05
2022-11-25T05:22:32.657Z,6.32
2022-11-25T05:24:59.231Z,6.18
2022-11-25T05:27:26.705Z,9.77
2022-11-25T05:29:56.134Z,9.13
2022-11-25T05:32:23.370Z,7.72
2022-11-25T05:34:49.788Z,7.97
2022-11-25T05:37:19.929Z,5.85
2022-11-25T05:39:50.504Z,6.45
2022-11-25T05:42:16.865Z,9.40
2022-11-25T05:44:43.229Z,8.35
2022-11-25T05:47:09.607Z,8.48
2022-11-25T05:49:36.053Z,8.90
2022-11-25T05:52:02.508Z,8.85
2022-11-25T05:54:28.890Z,6.65
2022-11-25T05:56:55.265Z,6.72
2022-11-25T05:59:21.632Z,5.78
2022-11-25T06:01:48.046Z,9.43
2022-11-25T06:04:14.538Z,6.80
2022-11-25T06:06:40.908Z,6.55
2022-11-25T06:09:07.246Z,5.40
2022-11-25T06:11:34.092Z,8.32
2022-11-25T06:14:02.153Z,9.65
2022-11-25T06:16:28.609Z,9.15
2022-11-25T06:18:55.091Z,5.47
2022-11-25T06:21:21.695Z,7.82
2022-11-25T06:23:48.116Z,8.07
2022-11-25T06:26:23.810Z,8.48
2022-11-25T06:28:53.687Z,5.82
2022-11-25T06:31:22.542Z,9.48
2022-11-25T06:33:51.161Z,6.97
2022-11-25T06:36:18.748Z,8.68
2022-11-25T06:38:49.726Z,9.45
2022-11-25T06:41:16.398Z,7.97
2022-11-25T06:43:42.809Z,6.03
2022-11-25T06:46:11.866Z,11.07
2022-11-25T06:48:38.551Z,8.68
2022-11-25T06:51:07.091Z,8.15
2022-11-25T06:53:34.974Z,7.57
2022-11-25T06:56:03.415Z,9.02
2022-11-25T06:58:36.566Z,11.73
2022-11-25T07:01:08.257Z,7.47
2022-11-25T07:03:35.180Z,9.90
2022-11-25T07:06:01.696Z,7.40
2022-11-25T07:08:33.571Z,9.45
2022-11-25T07:11:31.445Z,10.88
2022-11-25T07:14:03.707Z,11.07
2022-11-25T07:16:30.386Z,10.57
2022-11-25T07:18:59.131Z,8.38
2022-11-25T07:21:25.775Z,10.65
2022-11-25T07:23:52.875Z,9.60
2022-11-25T07:26:24.873Z,10.95
2022-11-25T07:28:52.475Z,11.15
2022-11-25T07:31:24.403Z,12.18
2022-11-25T07:33:53.146Z,14.38
2022-11-25T07:36:19.525Z,8.98
2022-11-25T07:38:46.902Z,11.25
2022-11-25T07:41:16.187Z,10.13
2022-11-25T07:43:50.750Z,9.65
2022-11-25T07:46:27.118Z,7.82
2022-11-25T07:48:59.039Z,9.43
2022-11-25T07:51:28.694Z,11.02
2022-11-25T07:53:56.360Z,8.85
2022-11-25T07:56:23.219Z,9.82
2022-11-25T07:58:49.774Z,8.23
2022-11-25T08:01:17.461Z,12.15
2022-11-25T08:03:44.659Z,11.23
2022-11-25T08:06:13.858Z,11.25
2022-11-25T08:08:41.291Z,12.48
2022-11-25T08:11:10.145Z,12.68
2022-11-25T08:13:36.858Z,9.80
2022-11-25T08:16:03.698Z,11.77
2022-11-25T08:18:30.237Z,13.30
2022-11-25T08:21:00.888Z,14.77
2022-11-25T08:23:27.775Z,9.23
2022-11-25T08:25:54.219Z,10.98
2022-11-25T08:28:20.639Z,10.85
2022-11-25T08:30:47.120Z,11.75
2022-11-25T08:33:13.548Z,10.95
2022-11-25T08:35:39.959Z,9.90
2022-11-25T08:38:08.223Z,9.82
2022-11-25T08:40:36.282Z,7.90
2022-11-25T08:43:03.778Z,9.25
2022-11-25T08:45:30.602Z,9.85
2022-11-25T08:47:57.835Z,11.75
2022-11-25T08:50:27.122Z,10.27
2022-11-25T08:52:53.525Z,9.73
2022-11-25T08:55:21.366Z,10.35
2022-11-25T08:57:47.785Z,7.32
2022-11-25T09:00:14.850Z,9.82
2022-11-25T09:02:41.617Z,11.65
2022-11-25T09:05:08.531Z,6.80
2022-11-25T09:07:34.973Z,8.38
2022-11-25T09:10:01.544Z,11.00
2022-11-25T09:12:27.974Z,7.97
2022-11-25T09:14:54.343Z,9.68
2022-11-25T09:17:20.687Z,7.93
2022-11-25T09:19:47.160Z,8.55
2022-11-25T09:22:13.600Z,14.02
2022-11-25T09:24:41.612Z,8.68
2022-11-25T09:27:08.013Z,9.40
2022-11-25T09:29:34.655Z,10.10
2022-11-25T09:32:01.430Z,6.28
2022-11-25T09:34:27.944Z,9.05
2022-11-25T09:36:54.436Z,8.73
2022-11-25T09:39:20.938Z,7.78
2022-11-25T09:42:57.170Z,9.70
2022-11-25T09:45:46.538Z,10.07
2022-11-25T09:48:18.915Z,10.32
2022-11-25T09:51:03.432Z,6.18
2022-11-25T09:53:43.972Z,9.80
2022-11-25T09:56:22.565Z,6.63
2022-11-25T09:58:53.586Z,10.52
2022-11-25T10:01:23.434Z,5.68
2022-11-25T10:06:41.048Z,7.68
2022-11-25T10:09:17.010Z,8.13
2022-11-25T10:11:51.295Z,6.22
2022-11-25T10:14:29.097Z,6.90
2022-11-25T10:17:03.889Z,6.88
2022-11-25T10:19:52.121Z,9.05
2022-11-25T10:22:25.160Z,8.45
2022-11-25T10:24:54.912Z,7.20
2022-11-25T10:27:33.355Z,4.43
2022-11-25T10:30:14.490Z,7.65
2022-11-25T10:32:44.567Z,6.55
2022-11-25T10:35:41.551Z,7.05
2022-11-25T10:38:18.573Z,9.80
2022-11-25T10:40:48.493Z,6.82
2022-11-25T10:43:15.057Z,7.25
2022-11-25T10:45:49.231Z,7.57
2022-11-25T10:48:44.027Z,7.05
2022-11-25T10:51:27.287Z,9.27
2022-11-25T10:54:27.495Z,5.78
2022-11-25T10:57:00.124Z,7.88
2022-11-25T10:59:35.655Z,6.07
2022-11-25T11:02:21.550Z,8.18
2022-11-25T11:05:00.125Z,10.00
2022-11-25T11:07:30.781Z,9.35
2022-11-25T11:10:15.187Z,8.05
2022-11-25T11:13:02.027Z,7.82
2022-11-25T11:15:31.332Z,10.13
2022-11-25T11:18:00.405Z,7.40
2022-11-25T11:20:31.225Z,7.95
2022-11-25T11:23:07.042Z,9.10
2022-11-25T11:25:40.007Z,8.43
2022-11-25T11:28:24.658Z,9.02
2022-11-25T11:30:59.874Z,7.57
2022-11-25T11:33:34.092Z,7.32
2022-11-25T11:36:16.961Z,8.13
2022-11-25T11:39:11.631Z,4.95
2022-11-25T11:44:56.026Z,9.88
2022-11-25T11:47:33.083Z,6.13
2022-11-25T11:50:17.187Z,7.38
2022-11-25T11:52:47.266Z,8.90
2022-11-25T11:56:26.701Z,12.48
2022-11-25T11:59:00.182Z,11.18
2022-11-25T12:01:46.565Z,9.88
2022-11-25T12:04:36.674Z,8.57
2022-11-25T12:07:17.988Z,11.63
2022-11-25T12:09:51.439Z,8.68
2022-11-25T12:12:19.298Z,8.55
2022-11-25T12:14:50.943Z,9.77
2022-11-25T12:17:21.819Z,6.88
2022-11-25T12:20:11.429Z,9.38
2022-11-25T12:22:46.803Z,11.18
2022-11-25T12:25:20.182Z,10.45
2022-11-25T12:27:47.804Z,9.65
2022-11-25T12:30:20.839Z,9.48
2022-11-25T12:32:57.167Z,9.40
2022-11-25T12:35:58.864Z,11.20
2022-11-25T12:38:33.756Z,9.18
2022-11-25T12:41:32.576Z,7.78
2022-11-25T12:44:05.438Z,11.82
2022-11-25T12:46:35.246Z,11.88
2022-11-25T12:49:02.195Z,10.02
2022-11-25T12:51:34.655Z,7.65
2022-11-25T12:54:19.762Z,12.80
2022-11-25T12:57:07.615Z,11.88
2022-11-25T13:00:40.573Z,10.63
2022-11-25T13:03:41.038Z,13.23
2022-11-25T13:06:24.302Z,11.75
2022-11-25T13:09:02.599Z,10.60
2022-11-25T13:11:56.035Z,9.70
2022-11-25T13:14:54.092Z,11.13
2022-11-25T13:17:22.398Z,10.38
2022-11-25T13:19:49.050Z,12.50
2022-11-25T13:22:18.403Z,7.97
2022-11-25T13:24:44.771Z,12.10
2022-11-25T13:27:38.213Z,10.68
2022-11-25T13:30:05.206Z,9.98
2022-11-25T13:32:34.860Z,13.50
2022-11-25T13:35:24.493Z,15.00
2022-11-25T13:37:51.314Z,11.85
2022-11-25T13:40:37.279Z,15.43
2022-11-25T13:43:04.046Z,13.55
2022-11-25T13:45:36.157Z,10.90
2022-11-25T13:48:27.450Z,11.30
2022-11-25T13:51:22.771Z,11.27
2022-11-25T13:53:58.222Z,10.82
2022-11-25T13:56:28.338Z,10.35
2022-11-25T13:59:10.068Z,14.70
2022-11-25T14:01:41.836Z,11.65
2022-11-25T14:04:11.080Z,11.35
2022-11-25T14:07:03.355Z,12.52
2022-11-25T14:10:11.698Z,11.35
2022-11-25T14:12:40.331Z,15.35
2022-11-25T14:15:36.115Z,11.10
2022-11-25T14:18:36.883Z,13.75
2022-11-25T14:21:41.693Z,19.45
2022-11-25T14:24:50.422Z,12.63
2022-11-25T14:27:25.270Z,12.93
2022-11-25T14:30:05.492Z,8.85
2022-11-25T14:32:39.938Z,14.55
2022-11-25T14:35:34.241Z,8.15
2022-11-25T14:38:07.424Z,12.00
2022-11-25T14:40:38.766Z,12.02
2022-11-25T14:43:08.727Z,15.15
2022-11-25T14:45:35.671Z,13.30
2022-11-25T14:48:21.818Z,13.07
2022-11-25T14:51:21.134Z,11.52
2022-11-25T14:53:48.983Z,11.85
2022-11-25T14:56:29.895Z,17.52
2022-11-25T14:58:58.077Z,13.30
2022-11-25T15:01:29.749Z,9.35
2022-11-25T15:04:10.792Z,11.43
2022-11-25T15:06:39.403Z,13.15
2022-11-25T15:09:29.961Z,17.48
2022-11-25T15:12:02.651Z,12.93
2022-11-25T15:14:32.047Z,11.65
2022-11-25T15:16:59.135Z,14.75
2022-11-25T15:19:33.258Z,16.67
2022-11-25T15:27:27.404Z,14.23
2022-11-25T15:29:55.384Z,14.70
2022-11-25T15:32:26.200Z,15.82
2022-11-25T15:34:53.944Z,14.20
2022-11-25T15:37:20.345Z,12.30
2022-11-25T15:39:46.828Z,10.90
2022-11-25T15:42:17.642Z,13.35
2022-11-25T15:44:51.472Z,17.15
2022-11-25T15:47:22.320Z,14.40
2022-11-25T15:50:03.605Z,13.15
2022-11-25T15:52:32.139Z,16.52
2022-11-25T15:55:27.858Z,16.05
2022-11-25T15:57:54.719Z,10.10
2022-11-25T16:00:23.197Z,17.15
2022-11-25T16:02:52.123Z,13.60
2022-11-25T16:05:27.375Z,13.18
2022-11-25T16:07:53.748Z,12.45
2022-11-25T16:10:24.329Z,13.70
2022-11-25T16:13:22.754Z,18.00
2022-11-25T16:16:07.737Z,14.77
2022-11-25T16:18:41.205Z,14.05
2022-11-25T16:21:11.710Z,23.75
2022-11-25T16:23:41.983Z,13.00
2022-11-25T16:26:11.463Z,14.63
2022-11-25T16:28:38.992Z,14.73
2022-11-25T16:31:05.645Z,14.60
2022-11-25T16:33:32.055Z,12.32
2022-11-25T16:35:58.457Z,13.25
2022-11-25T16:38:24.856Z,14.43
2022-11-25T16:40:52.812Z,18.83
2022-11-25T16:43:23.468Z,15.05
2022-11-25T16:45:52.027Z,13.10
2022-11-25T16:48:21.127Z,14.85
2022-11-25T16:50:48.526Z,15.18
2022-11-25T16:53:15.056Z,12.27
2022-11-25T16:55:44.659Z,15.52
2022-11-25T16:58:20.180Z,12.80
2022-11-25T17:00:56.248Z,16.42
2022-11-25T17:03:26.103Z,16.23
2022-11-25T17:05:55.005Z,13.27
2022-11-25T17:08:21.938Z,14.43
2022-11-25T17:10:49.702Z,13.45
2022-11-25T17:13:23.145Z,13.93
2022-11-25T17:15:49.868Z,16.40
2022-11-25T17:18:19.134Z,18.58
2022-11-25T17:20:46.536Z,17.48
2022-11-25T17:23:15.051Z,15.27
2022-11-25T17:25:43.410Z,14.80
2022-11-25T17:28:15.340Z,17.35
2022-11-25T17:30:42.146Z,19.25
2022-11-25T17:33:13.316Z,21.17
2022-11-25T17:35:39.774Z,16.65
2022-11-25T17:38:12.291Z,17.23
2022-11-25T17:40:38.754Z,17.25
2022-11-25T17:43:05.612Z,14.00
2022-11-25T17:45:32.069Z,15.40
2022-11-25T17:47:58.507Z,15.32
2022-11-25T17:50:26.343Z,18.13
2022-11-25T17:52:53.079Z,15.68
2022-11-25T17:55:21.575Z,15.15
2022-11-25T17:57:51.497Z,14.88
2022-11-25T18:00:20.681Z,21.90
2022-11-25T18:02:47.352Z,18.48
2022-11-25T18:05:24.973Z,18.75
2022-11-25T18:07:51.788Z,23.27
2022-11-25T18:10:21.486Z,16.35
2022-11-25T18:12:50.275Z,19.30
2022-11-25T18:15:30.751Z,24.52
2022-11-25T18:18:03.562Z,22.05
2022-11-25T18:20:32.736Z,21.60
2022-11-25T18:22:59.956Z,24.10
2022-11-25T18:25:30.672Z,25.40
2022-11-25T18:27:57.983Z,29.17
2022-11-25T18:30:27.526Z,27.15
2022-11-25T18:32:56.099Z,28.63
2022-11-25T18:35:35.710Z,27.58
2022-11-25T18:38:03.271Z,22.48
2022-11-25T18:40:29.947Z,26.70
2022-11-25T18:42:57.872Z,23.63
2022-11-25T18:45:27.109Z,24.67
2022-11-25T18:47:53.619Z,25.63
2022-11-25T18:50:22.191Z,26.38
2022-11-25T18:52:48.984Z,28.50
2022-11-25T18:55:17.080Z,31.75
2022-11-25T18:57:45.250Z,29.42
2022-11-25T19:00:32.852Z,21.73
2022-11-25T19:02:59.960Z,25.58
2022-11-25T19:05:31.390Z,16.30
2022-11-25T19:07:58.195Z,21.13
2022-11-25T19:10:27.648Z,22.80
2022-11-25T19:13:06.325Z,18.88
2022-11-25T19:15:34.037Z,19.35
2022-11-25T19:18:02.328Z,15.82
2022-11-25T19:20:30.098Z,17.63
2022-11-25T19:23:00.627Z,20.00
2022-11-25T19:25:28.391Z,21.02
2022-11-25T19:27:57.616Z,20.67
2022-11-25T19:30:27.467Z,28.95
2022-11-25T19:32:56.570Z,19.15
2022-11-25T19:35:27.106Z,23.52
2022-11-25T19:37:54.555Z,17.38
2022-11-25T19:40:22.299Z,19.05
2022-11-25T19:42:48.800Z,22.20
2022-11-25T19:45:17.236Z,16.85
2022-11-25T19:47:45.136Z,28.08
2022-11-25T19:50:19.772Z,17.10
2022-11-25T19:52:46.615Z,18.88
2022-11-25T19:55:15.326Z,14.82
2022-11-25T19:57:42.267Z,16.10
2022-11-25T20:00:09.203Z,20.75
2022-11-25T20:02:35.676Z,22.17
2022-11-25T20:05:03.605Z,21.98
2022-11-25T20:07:30.969Z,20.23
2022-11-25T20:10:07.572Z,20.27
2022-11-25T20:12:33.972Z,17.05
2022-11-25T20:15:00.584Z,18.35
2022-11-25T20:17:29.375Z,20.95
2022-11-25T20:19:58.274Z,22.95
2022-11-25T20:22:27.851Z,21.00
2022-11-25T20:24:54.982Z,16.60
2022-11-25T20:27:25.774Z,19.65
2022-11-25T20:29:52.280Z,15.27
2022-11-25T20:32:27.975Z,16.65
2022-11-25T20:34:55.416Z,20.45
2022-11-25T20:37:24.739Z,17.45
2022-11-25T20:39:52.919Z,27.90
2022-11-25T20:42:20.256Z,14.45
2022-11-25T20:44:47.458Z,14.13
2022-11-25T20:47:16.651Z,16.30
2022-11-25T20:49:44.439Z,23.98
2022-11-25T20:52:38.768Z,23.70
2022-11-25T20:55:15.734Z,21.27
2022-11-25T20:57:42.757Z,22.80
2022-11-25T21:00:17.417Z,21.42
2022-11-25T21:02:43.935Z,13.68
2022-11-25T21:05:10.475Z,17.23
2022-11-25T21:07:36.979Z,14.98
2022-11-25T21:10:18.866Z,13.65
2022-11-25T21:12:45.318Z,24.67
2022-11-25T21:15:16.547Z,21.00
2022-11-25T21:17:43.831Z,21.85
2022-11-25T21:20:11.052Z,18.88
2022-11-25T21:22:41.371Z,21.10
2022-11-25T21:25:12.684Z,19.20
2022-11-25T21:27:39.787Z,17.17
2022-11-25T21:30:07.158Z,16.17
2022-11-25T21:32:34.393Z,18.80
2022-11-25T21:35:03.795Z,22.17
2022-11-25T21:37:36.379Z,16.80
2022-11-25T21:40:03.870Z,19.55
2022-11-25T21:42:32.023Z,22.38
2022-11-25T21:44:58.541Z,19.08
2022-11-25T21:47:28.239Z,22.10
2022-11-25T21:49:55.151Z,16.95
2022-11-25T21:52:21.527Z,16.35
2022-11-25T21:54:47.974Z,19.85
2022-11-25T21:57:20.861Z,19.00
2022-11-25T21:59:47.682Z,14.98
2022-11-25T22:02:17.497Z,18.48
2022-11-25T22:04:43.865Z,20.98
2022-11-25T22:07:10.315Z,19.08
2022-11-25T22:09:36.828Z,21.23
2022-11-25T22:12:05.030Z,21.95
2022-11-25T22:14:39.855Z,17.73
2022-11-25T22:17:12.643Z,18.17
2022-11-25T22:19:39.118Z,14.93
2022-11-25T22:22:12.074Z,14.18
2022-11-25T22:24:38.565Z,18.30
2022-11-25T22:27:07.147Z,16.13
2022-11-25T22:29:35.453Z,19.08
2022-11-25T22:32:07.031Z,26.33
2022-11-25T22:34:36.569Z,21.17
2022-11-25T22:37:03.318Z,20.60
2022-11-25T22:39:29.680Z,16.27
2022-11-25T22:42:01.223Z,21.17
2022-11-25T22:44:35.128Z,13.93
2022-11-25T22:47:02.424Z,16.02
2022-11-25T22:49:31.695Z,21.50
2022-11-25T22:51:58.664Z,16.70
2022-11-25T22:54:25.210Z,17.70
2022-11-25T22:56:52.005Z,20.17
2022-11-25T22:59:18.411Z,16.20
2022-11-25T23:01:44.996Z,14.25
2022-11-25T23:04:16.211Z,19.55
2022-11-25T23:06:42.698Z,13.02
2022-11-25T23:09:18.104Z,19.65
2022-11-25T23:11:45.284Z,13.95
2022-11-25T23:14:12.404Z,16.02
2022-11-25T23:16:40.155Z,17.42
2022-11-25T23:19:15.846Z,21.05
2022-11-25T23:21:44.392Z,17.40
2022-11-25T23:24:16.479Z,12.90
2022-11-25T23:26:43.595Z,17.90
2022-11-25T23:29:09.997Z,12.18
2022-11-25T23:31:37.457Z,13.43
2022-11-25T23:34:05.087Z,19.02
2022-11-25T23:36:42.839Z,22.02
2022-11-25T23:39:19.255Z,17.98
2022-11-25T23:41:45.771Z,16.92
2022-11-25T23:44:15.194Z,17.55
2022-11-25T23:46:41.780Z,16.13
2022-11-25T23:49:19.273Z,22.00
2022-11-25T23:51:45.891Z,17.95
2022-11-25T23:54:15.175Z,20.55
2022-11-25T23:56:41.614Z,14.57
2022-11-25T23:59:15.728Z,14.75
